Flight Track Log - Related Links

Times and Time Zones

All times are in EDT time to prevent confusion due to time zone crossing. See the N8186F flight status page for this flight to view local times or setup timezone preferences in your user account.

Time Position Orientation Groundspeed Altitude Reporting Facility
EDT Latitude Longitude Course Direction KTS MPH feet Rate Location/Type
Sun 03:55:15 PM 42.1799 -89.0536 132° Southeast  Level FlightAware Approximate
Sun 03:56:15 PM 42.1675 -89.0187 142° Southeast  Level FlightAware Approximate
Sun 03:57:15 PM 42.1551 -88.9838 179° South  Level FlightAware Approximate
Sun 03:58:05 PM 42.1333 -88.9833 160° South 86 99 5,000  Level Chicago TRACON
Sun 03:59:05 PM 42.1000 -88.9667 124° Southeast 102 117 5,100 50 Climbing Chicago TRACON
Sun 04:00:05 PM 42.0833 -88.9333 143° Southeast 133 153 5,100  Level Chicago TRACON
Sun 04:00:59 PM 42.0500 -88.9000 114° Southeast 144 166 5,100  Level Chicago TRACON
Sun 04:01:59 PM 42.0333 -88.8500 114° Southeast 141 162 5,100  Level Chicago TRACON
Sun 04:02:59 PM 42.0167 -88.8000 124° Southeast 145 167 5,100  Level Chicago TRACON
Sun 04:03:59 PM 42.0000 -88.7667 109° East 142 163 5,100  Level Chicago TRACON
Sun 04:05:06 PM 41.9833 -88.7000 124° Southeast 140 161 5,100  Level Chicago TRACON
Sun 04:06:00 PM 41.9667 -88.6667 114° Southeast 141 162 5,100 -222 Level Chicago TRACON
Sun 04:06:54 PM 41.9500 -88.6167 114° Southeast 148 170 4,700 -421 Descending Chicago TRACON
Sun 04:07:54 PM 41.9333 -88.5667 132° Southeast 156 180 4,300 -286 Descending Chicago TRACON
Sun 04:09:00 PM 41.9000 -88.5167 124° Southeast 137 158 4,100 -143 Descending Chicago TRACON
Sun 04:10:00 PM 41.8833 -88.4833 90° East 127 146 4,000  Descending Chicago TRACON
Sun 04:10:54 PM 41.8833 -88.4500 132° Southeast 125 144 4,100 -150 Climbing Chicago TRACON
Sun 04:12:00 PM 41.8500 -88.4000 114° Southeast 138 159 3,700 -429 Descending Chicago TRACON
Sun 04:13:00 PM 41.8333 -88.3500 124° Southeast 143 165 3,200 -316 Descending Chicago TRACON
Sun 04:13:54 PM 41.8167 -88.3167 114° Southeast 134 154 3,100 -53 Descending Chicago TRACON
Sun 04:14:54 PM 41.8000 -88.2667 124° Southeast 129 148 3,100  Level Chicago TRACON
Sun 04:15:48 PM 41.7833 -88.2333 114° Southeast 130 150 3,100  Level Chicago TRACON
Sun 04:16:49 PM 41.7667 -88.1833 124° Southeast 128 147 3,100  Level Chicago TRACON
Sun 04:17:49 PM 41.7500 -88.1500 114° Southeast 130 150 3,100  Level Chicago TRACON
Sun 04:18:49 PM 41.7333 -88.1000 124° Southeast 131 151 3,100  Level Chicago TRACON
Sun 04:19:43 PM 41.7167 -88.0667 114° Southeast 131 151 3,100 50 Level Chicago TRACON
Sun 04:20:49 PM 41.7000 -88.0167 143° Southeast 133 153 3,200 48 Climbing Chicago TRACON
Sun 04:21:49 PM 41.6667 -87.9833 160° South 136 157 3,200 -50 Level Chicago TRACON
Sun 04:22:49 PM 41.6333 -87.9667 159° South 137 158 3,100  Descending Chicago TRACON
Sun 04:23:49 PM 41.6000 -87.9500 159° South 134 154 3,200 640 Climbing Chicago TRACON
Sun 04:25:19 PM 41.5667 -87.9333 143° Southeast 86 99 4,700 875 Climbing Chicago TRACON
Sun 04:26:13 PM 41.5500 -87.9167 149° Southeast 90 104 5,300 600 Climbing Chicago TRACON
Sun 04:27:39 PM 41.5219 -87.8939 132° Southeast 79 91 6,100 534 Climbing Chicago Center
Sun 04:28:39 PM 41.5050 -87.8692 142° Southeast 84 97 6,600 450 Climbing Chicago Center
Sun 04:29:39 PM 41.4839 -87.8475 139° Southeast 90 104 7,000 200 Climbing Chicago Center
Sun 04:30:39 PM 41.4586 -87.8178 140° Southeast 101 116 7,000  Level Chicago Center
Sun 04:31:39 PM 41.4267 -87.7825 138° Southeast 122 140 7,000 100 Level Chicago Center
Sun 04:32:39 PM 41.3969 -87.7472 140° Southeast 136 157 7,200 100 Climbing Chicago Center
Sun 04:33:39 PM 41.3675 -87.7147 138° Southeast 136 157 7,200 -50 Level Chicago Center
Sun 04:34:39 PM 41.3378 -87.6794 139° Southeast 136 157 7,100 -50 Descending Chicago Center
Sun 04:35:39 PM 41.3100 -87.6469 139° Southeast 136 157 7,100  Level Chicago Center
Sun 04:36:39 PM 41.2825 -87.6147 141° Southeast 136 157 7,100  Level Chicago Center
Sun 04:37:39 PM 41.2528 -87.5822 140° Southeast 136 157 7,100  Level Chicago Center
Sun 04:38:39 PM 41.2211 -87.5472 141° Southeast 136 157 7,100  Level Chicago Center
Sun 04:39:39 PM 41.1914 -87.5150 138° Southeast 136 157 7,100  Level Chicago Center
Sun 04:40:39 PM 41.1617 -87.4800 144° Southeast 136 157 7,100  Level Chicago Center
Sun 04:41:39 PM 41.1278 -87.4478 138° Southeast 136 157 7,100  Level Chicago Center
Sun 04:42:39 PM 41.0958 -87.4103 145° Southeast 136 157 7,100  Level Chicago Center
Sun 04:43:15 PM 41.0725 -87.3889 139° Southeast 146 168 7,100  Level Chicago Center
Sun 04:44:03 PM 41.0469 -87.3594 130° Southeast 146 168 7,100  Level Chicago Center
Sun 04:44:39 PM 41.0364 -87.3431 141° Southeast 136 157 7,100  Level Chicago Center
Sun 04:45:39 PM 41.0044 -87.3083 139° Southeast 136 157 7,100  Level Chicago Center
Sun 04:46:39 PM 40.9744 -87.2736 142° Southeast 136 157 7,100  Level Chicago Center
Sun 04:47:39 PM 40.9428 -87.2414 142° Southeast 136 157 7,100  Level Chicago Center
Sun 04:48:12 PM 40.9172 -87.2150 141° Southeast 145 167 7,100  Level Chicago Center
Sun 04:49:13 PM 40.8894 -87.1856 136° Southeast 146 168 7,100 52 Level Chicago Center
Sun 04:50:07 PM 40.8597 -87.1481 137° Southeast 145 167 7,200 70 Climbing Chicago Center
Sun 04:50:39 PM 40.8511 -87.1375 139° Southeast 136 157 7,200 -65 Level Chicago Center
Sun 04:51:39 PM 40.8211 -87.1028 145° Southeast 136 157 7,100 -50 Descending Chicago Center
Sun 04:52:39 PM 40.7872 -87.0711 143° Southeast 141 162 7,100  Level Chicago Center
Sun 04:53:09 PM 40.7658 -87.0497 141° Southeast 145 167 7,100  Level Chicago Center
Sun 04:54:03 PM 40.7383 -87.0206 141° Southeast 147 169 7,100  Level Chicago Center
Sun 04:55:04 PM 40.7061 -86.9861 139° Southeast 146 168 7,100  Level Chicago Center
Sun 04:56:05 PM 40.6719 -86.9464 139° Southeast 147 169 7,100  Level Chicago Center
Sun 04:57:05 PM 40.6422 -86.9119 141° Southeast 150 173 7,100 50 Level Chicago Center
Sun 04:58:06 PM 40.6100 -86.8775 139° Southeast 146 168 7,200  Climbing Chicago Center
Sun 04:59:00 PM 40.5822 -86.8456 143° Southeast 147 169 7,100  Descending Chicago Center
Sun 05:00:01 PM 40.5503 -86.8142 139° Southeast 144 166 7,200 49 Climbing Chicago Center
Sun 05:01:02 PM 40.5203 -86.7797 143° Southeast 145 167 7,200 -50 Level Chicago Center
Sun 05:02:02 PM 40.4861 -86.7456 137° Southeast 144 166 7,100  Descending Chicago Center
Sun 05:03:03 PM 40.4583 -86.7111 141° Southeast 144 166 7,200  Climbing Chicago Center
Sun 05:04:03 PM 40.4242 -86.6744 142° Southeast 147 169 7,100  Descending Chicago Center
Sun 05:05:04 PM 40.3964 -86.6456 142° Southeast 145 167 7,200 49 Climbing Chicago Center
Sun 05:06:05 PM 40.3600 -86.6089 136° Southeast 149 171 7,200  Level Chicago Center
Sun 05:07:59 PM 40.3000 -86.5333 143° Southeast 151 174 7,200 -276 Level Indianapolis TRACON
Sun 05:08:59 PM 40.2667 -86.5000 143° Southeast 155 178 6,400 -942 Descending Indianapolis TRACON
Sun 05:10:00 PM 40.2333 -86.4667 143° Southeast 165 190 5,300 -992 Descending Indianapolis TRACON
Sun 05:11:00 PM 40.2000 -86.4333 331° Northwest 168 193 4,400 -900 Descending Indianapolis TRACON
Sun 05:18:15 PM 40.5049 -86.6541 331° Northwest  Level FlightAware Approximate
Sun 05:19:15 PM 40.5469 -86.6847 331° Northwest  Level FlightAware Approximate
Sun 05:20:15 PM 40.5889 -86.7154 331° Northwest  Level FlightAware Approximate
Sun 05:21:15 PM 40.6310 -86.7461 331° Northwest  Level FlightAware Approximate
Sun 05:22:15 PM 40.6730 -86.7768 331° Northwest  Level FlightAware Approximate
Sun 05:23:15 PM 40.7149 -86.8076 331° Northwest  Level FlightAware Approximate
Sun 05:24:15 PM 40.7569 -86.8384 331° Northwest  Level FlightAware Approximate
Sun 05:25:15 PM 40.7989 -86.8692 331° Northwest  Level FlightAware Approximate
Sun 05:26:15 PM 40.8409 -86.9001 331° Northwest  Level FlightAware Approximate
Sun 05:27:15 PM 40.8828 -86.9310 331° Northwest  Level FlightAware Approximate
Sun 05:28:15 PM 40.9248 -86.9620 331° Northwest  Level FlightAware Approximate
Sun 05:29:15 PM 40.9667 -86.9930 331° Northwest  Level FlightAware Approximate
Sun 05:30:15 PM 41.0086 -87.0240 331° Northwest  Level FlightAware Approximate
Sun 05:31:15 PM 41.0505 -87.0551 331° Northwest  Level FlightAware Approximate
Sun 05:32:15 PM 41.0925 -87.0862 331° Northwest  Level FlightAware Approximate
Sun 05:33:15 PM 41.1344 -87.1174 331° Northwest  Level FlightAware Approximate
Sun 05:34:15 PM 41.1763 -87.1486 331° Northwest  Level FlightAware Approximate
Sun 05:35:15 PM 41.2182 -87.1798 331° Northwest  Level FlightAware Approximate
Sun 05:36:15 PM 41.2600 -87.2111 331° Northwest  Level FlightAware Approximate
Sun 05:37:15 PM 41.3019 -87.2424 331° Northwest  Level FlightAware Approximate
Sun 05:38:15 PM 41.3438 -87.2738 331° Northwest  Level FlightAware Approximate
Sun 05:39:15 PM 41.3857 -87.3052 331° Northwest  Level FlightAware Approximate

Login

Don't have an account? Register now (free) for customized features, flight alerts, and more!